createdAt,value
2023-05-13T00:00:58.992Z,2.40
2023-05-13T00:03:28.703Z,2.20
2023-05-13T00:05:56.952Z,2.60
2023-05-13T00:08:24.924Z,2.93
2023-05-13T00:10:52.920Z,2.27
2023-05-13T00:13:21.103Z,2.30
2023-05-13T00:15:49.117Z,2.77
2023-05-13T00:18:17.125Z,2.60
2023-05-13T00:20:46.379Z,2.43
2023-05-13T00:23:14.665Z,2.47
2023-05-13T00:25:44.158Z,2.70
2023-05-13T00:28:14.039Z,2.27
2023-05-13T00:30:43.858Z,2.83
2023-05-13T00:33:12.007Z,2.50
2023-05-13T00:35:40.011Z,2.60
2023-05-13T00:38:09.396Z,2.40
2023-05-13T00:40:40.843Z,2.93
2023-05-13T00:43:08.953Z,2.77
2023-05-13T00:45:38.543Z,2.97
2023-05-13T00:48:08.127Z,2.87
2023-05-13T00:50:36.123Z,2.93
2023-05-13T00:53:04.995Z,2.87
2023-05-13T00:55:34.348Z,2.37
2023-05-13T00:58:02.306Z,2.73
2023-05-13T01:00:31.897Z,2.90
2023-05-13T01:03:11.314Z,2.50
2023-05-13T01:05:47.948Z,2.60
2023-05-13T01:08:24.199Z,3.00
2023-05-13T01:11:01.238Z,2.60
2023-05-13T01:13:32.610Z,2.20
2023-05-13T01:16:06.594Z,2.70
2023-05-13T01:18:39.244Z,2.30
2023-05-13T01:21:08.679Z,2.80
2023-05-13T01:23:38.068Z,2.70
2023-05-13T01:26:06.379Z,2.63
2023-05-13T01:28:34.437Z,2.87
2023-05-13T01:31:02.611Z,2.57
2023-05-13T01:33:31.805Z,2.73
2023-05-13T01:36:00.192Z,2.90
2023-05-13T01:38:29.642Z,2.80
2023-05-13T01:41:00.833Z,3.30
2023-05-13T01:43:28.775Z,3.20
2023-05-13T01:46:00.333Z,2.93
2023-05-13T01:48:28.419Z,3.07
2023-05-13T01:50:57.172Z,2.57
2023-05-13T01:53:25.134Z,2.67
2023-05-13T01:55:53.132Z,3.20
2023-05-13T01:58:22.574Z,2.90
2023-05-13T02:00:50.511Z,3.10
2023-05-13T02:03:18.514Z,3.00
2023-05-13T02:05:47.817Z,2.83
2023-05-13T02:08:15.712Z,3.20
2023-05-13T02:10:43.757Z,2.50
2023-05-13T02:13:12.171Z,3.27
2023-05-13T02:15:41.672Z,3.30
2023-05-13T02:18:09.600Z,2.33
2023-05-13T02:20:37.556Z,2.93
2023-05-13T02:23:05.506Z,2.70
2023-05-13T02:25:33.521Z,3.00
2023-05-13T02:28:01.552Z,3.10
2023-05-13T02:30:29.617Z,3.03
2023-05-13T02:32:59.109Z,2.90
2023-05-13T02:35:29.860Z,3.00
2023-05-13T02:37:58.116Z,2.77
2023-05-13T02:40:26.254Z,2.80
2023-05-13T02:42:54.171Z,3.00
2023-05-13T02:45:22.244Z,2.67
2023-05-13T02:47:50.206Z,2.43
2023-05-13T02:50:20.365Z,2.80
2023-05-13T02:52:48.563Z,3.60
2023-05-13T02:55:16.495Z,3.57
2023-05-13T02:57:44.872Z,3.00
2023-05-13T03:00:14.097Z,3.03
2023-05-13T03:02:43.183Z,3.17
2023-05-13T03:05:11.385Z,3.23
2023-05-13T03:07:40.722Z,3.10
2023-05-13T03:10:09.765Z,2.97
2023-05-13T03:12:37.757Z,2.77
2023-05-13T03:15:06.824Z,3.57
2023-05-13T03:17:34.735Z,2.80
2023-05-13T03:20:02.747Z,3.10
2023-05-13T03:22:30.801Z,3.33
2023-05-13T03:25:00.154Z,3.00
2023-05-13T03:27:28.140Z,3.40
2023-05-13T03:29:56.083Z,2.73
2023-05-13T03:32:25.425Z,2.67
2023-05-13T03:34:53.583Z,3.10
2023-05-13T03:37:21.514Z,3.50
2023-05-13T03:39:49.419Z,4.13
2023-05-13T03:42:18.741Z,2.53
2023-05-13T03:44:46.730Z,3.47
2023-05-13T03:47:14.659Z,3.17
2023-05-13T03:49:42.563Z,2.73
2023-05-13T03:52:10.480Z,2.70
2023-05-13T03:54:38.418Z,3.13
2023-05-13T03:57:08.129Z,3.77
2023-05-13T03:59:37.379Z,3.10
2023-05-13T04:02:06.437Z,3.57
2023-05-13T04:04:34.448Z,2.90
2023-05-13T04:07:02.370Z,2.83
2023-05-13T04:09:30.302Z,3.33
2023-05-13T04:11:58.229Z,3.10
2023-05-13T04:14:26.267Z,2.93
2023-05-13T04:16:55.604Z,2.97
2023-05-13T04:19:23.572Z,3.23
2023-05-13T04:21:51.626Z,3.40
2023-05-13T04:24:19.570Z,3.43
2023-05-13T04:26:47.507Z,3.20
2023-05-13T04:29:17.249Z,3.43
2023-05-13T04:31:45.891Z,3.40
2023-05-13T04:34:15.346Z,3.00
2023-05-13T04:36:43.310Z,3.53
2023-05-13T04:39:11.507Z,3.33
2023-05-13T04:41:39.430Z,2.90
2023-05-13T04:44:07.339Z,3.03
2023-05-13T04:46:38.093Z,3.47
2023-05-13T04:49:06.953Z,3.23
2023-05-13T04:51:36.729Z,2.90
2023-05-13T04:54:05.234Z,3.07
2023-05-13T04:56:33.509Z,3.17
2023-05-13T04:59:01.532Z,3.43
2023-05-13T05:01:29.503Z,2.87
2023-05-13T05:03:59.414Z,2.93
2023-05-13T05:06:27.527Z,2.77
2023-05-13T05:08:56.815Z,3.03
2023-05-13T05:11:24.892Z,4.47
2023-05-13T05:13:52.834Z,2.90
2023-05-13T05:16:20.976Z,3.20
2023-05-13T05:18:49.020Z,2.60
2023-05-13T05:21:18.163Z,2.40
2023-05-13T05:23:46.090Z,3.03
2023-05-13T05:26:15.432Z,2.83
2023-05-13T05:28:44.513Z,2.70
2023-05-13T05:31:12.713Z,2.60
2023-05-13T05:33:42.761Z,2.75
2023-05-13T05:36:10.752Z,2.83
2023-05-13T05:38:38.860Z,3.22
2023-05-13T05:41:07.862Z,2.97
2023-05-13T05:43:37.267Z,2.95
2023-05-13T05:46:06.047Z,2.33
2023-05-13T05:48:34.823Z,3.03
2023-05-13T05:51:03.263Z,2.92
2023-05-13T05:53:32.036Z,2.47
2023-05-13T05:56:00.581Z,2.70
2023-05-13T05:58:28.611Z,2.83
2023-05-13T06:00:58.545Z,2.75
2023-05-13T06:03:26.799Z,2.80
2023-05-13T06:05:55.263Z,2.63
2023-05-13T06:08:30.321Z,2.53
2023-05-13T06:10:58.998Z,2.22
2023-05-13T06:13:27.005Z,2.53
2023-05-13T06:15:55.000Z,2.70
2023-05-13T06:18:24.405Z,2.33
2023-05-13T06:20:52.383Z,3.08
2023-05-13T06:23:20.360Z,2.60
2023-05-13T06:25:48.494Z,2.63
2023-05-13T06:28:16.378Z,2.13
2023-05-13T06:30:45.330Z,2.70
2023-05-13T06:33:13.307Z,2.50
2023-05-13T06:35:43.225Z,2.53
2023-05-13T06:38:11.651Z,2.15
2023-05-13T06:40:39.577Z,2.30
2023-05-13T06:43:07.576Z,2.05
2023-05-13T06:45:35.460Z,2.30
2023-05-13T06:48:03.389Z,2.28
2023-05-13T06:50:31.397Z,2.28
2023-05-13T06:53:00.687Z,2.22
2023-05-13T06:55:28.613Z,1.88
2023-05-13T06:57:56.488Z,2.10
2023-05-13T07:00:24.922Z,2.03
2023-05-13T07:02:52.938Z,2.65
2023-05-13T07:05:21.071Z,2.15
2023-05-13T07:07:53.526Z,2.08
2023-05-13T07:10:22.926Z,2.05
2023-05-13T07:12:51.299Z,2.30
2023-05-13T07:15:19.404Z,1.98
2023-05-13T07:17:47.463Z,2.10
2023-05-13T07:20:16.272Z,2.00
2023-05-13T07:22:44.146Z,1.80
2023-05-13T07:25:12.558Z,2.25
2023-05-13T07:27:41.876Z,1.92
2023-05-13T07:30:11.661Z,2.00
2023-05-13T07:32:39.838Z,1.83
2023-05-13T07:35:09.050Z,1.70
2023-05-13T07:37:38.068Z,1.45
2023-05-13T07:40:07.936Z,3.20
2023-05-13T07:42:36.224Z,1.20
2023-05-13T07:45:07.299Z,1.35
2023-05-13T07:47:35.326Z,1.48
2023-05-13T07:50:03.549Z,1.77
2023-05-13T07:52:31.614Z,1.63
2023-05-13T07:54:59.500Z,2.30
2023-05-13T07:57:27.435Z,1.33
2023-05-13T07:59:55.413Z,1.33
2023-05-13T08:02:24.761Z,1.30
2023-05-13T08:04:53.475Z,1.70
2023-05-13T08:07:21.363Z,1.60
2023-05-13T08:09:49.233Z,2.20
2023-05-13T08:12:17.214Z,1.63
2023-05-13T08:14:46.117Z,1.70
2023-05-13T08:17:17.267Z,1.65
2023-05-13T08:19:46.967Z,2.10
2023-05-13T08:22:15.051Z,1.77
2023-05-13T08:24:43.300Z,1.63
2023-05-13T08:27:12.792Z,1.73
2023-05-13T08:29:40.774Z,1.35
2023-05-13T08:32:08.839Z,1.50
2023-05-13T08:34:36.810Z,1.70
2023-05-13T08:37:06.328Z,2.05
2023-05-13T08:39:34.397Z,1.50
2023-05-13T08:42:05.082Z,1.80
2023-05-13T08:44:33.870Z,1.80
2023-05-13T08:47:08.450Z,2.15
2023-05-13T08:49:37.230Z,1.58
2023-05-13T08:52:07.214Z,1.52
2023-05-13T08:54:36.161Z,1.90
2023-05-13T08:57:04.869Z,1.70
2023-05-13T08:59:32.841Z,1.50
2023-05-13T09:02:03.453Z,2.70
2023-05-13T09:04:32.257Z,1.83
2023-05-13T09:07:00.360Z,2.08
2023-05-13T09:09:29.783Z,1.67
2023-05-13T09:11:57.750Z,1.98
2023-05-13T09:14:31.472Z,1.35
2023-05-13T09:16:59.770Z,1.95
2023-05-13T09:19:27.873Z,3.50
2023-05-13T09:21:56.189Z,2.10
2023-05-13T09:24:24.693Z,1.92
2023-05-13T09:26:54.047Z,2.38
2023-05-13T09:29:24.359Z,1.65
2023-05-13T09:31:55.250Z,1.63
2023-05-13T09:34:27.191Z,1.83
2023-05-13T09:37:00.199Z,1.42
2023-05-13T09:39:28.310Z,2.00
2023-05-13T09:41:57.748Z,1.70
2023-05-13T09:44:26.013Z,1.88
2023-05-13T09:46:54.931Z,1.88
2023-05-13T09:49:24.720Z,1.80
2023-05-13T09:51:52.609Z,2.20
2023-05-13T09:54:20.527Z,1.83
2023-05-13T09:56:48.804Z,1.65
2023-05-13T09:59:19.343Z,1.77
2023-05-13T10:01:48.745Z,1.70
2023-05-13T10:04:17.527Z,1.90
2023-05-13T10:06:47.538Z,1.98
2023-05-13T10:09:17.929Z,1.77
2023-05-13T10:11:48.978Z,1.95
2023-05-13T10:14:19.108Z,1.77
2023-05-13T10:16:48.040Z,1.58
2023-05-13T10:19:16.409Z,1.70
2023-05-13T10:21:45.284Z,1.63
2023-05-13T10:24:14.258Z,1.50
2023-05-13T10:26:43.779Z,1.98
2023-05-13T10:29:12.630Z,1.55
2023-05-13T10:31:43.073Z,1.60
2023-05-13T10:34:11.792Z,1.40
2023-05-13T10:36:56.474Z,1.27
2023-05-13T10:39:58.950Z,1.52
2023-05-13T10:42:40.330Z,1.70
2023-05-13T10:45:09.569Z,1.70
2023-05-13T10:47:39.550Z,1.83
2023-05-13T10:50:23.213Z,1.23
2023-05-13T10:52:56.440Z,1.52
2023-05-13T10:55:27.210Z,1.45
2023-05-13T10:58:12.270Z,1.40
2023-05-13T11:00:42.633Z,1.65
2023-05-13T11:03:15.398Z,1.35
2023-05-13T11:05:47.217Z,1.73
2023-05-13T11:08:39.754Z,1.65
2023-05-13T11:11:35.707Z,1.50
2023-05-13T11:14:17.010Z,1.35
2023-05-13T11:16:50.242Z,1.48
2023-05-13T11:19:23.029Z,1.80
2023-05-13T11:21:55.237Z,1.55
2023-05-13T11:24:24.366Z,1.75
2023-05-13T11:26:54.239Z,1.50
2023-05-13T11:29:30.561Z,3.65
2023-05-13T11:32:00.846Z,1.48
2023-05-13T11:34:31.431Z,1.40
2023-05-13T11:37:09.505Z,1.67
2023-05-13T11:39:40.730Z,1.52
2023-05-13T11:42:09.414Z,1.50
2023-05-13T11:44:37.777Z,1.42
2023-05-13T11:47:08.119Z,1.80
2023-05-13T11:49:40.328Z,1.80
2023-05-13T11:52:10.548Z,1.45
2023-05-13T11:54:43.315Z,1.55
2023-05-13T11:57:24.566Z,2.10
2023-05-13T11:59:57.960Z,1.73
2023-05-13T12:02:27.410Z,1.95
2023-05-13T12:05:00.488Z,1.35
2023-05-13T12:07:28.802Z,1.35
2023-05-13T12:09:58.183Z,1.60
2023-05-13T12:12:27.999Z,1.55
2023-05-13T12:14:57.829Z,1.50
2023-05-13T12:17:26.577Z,2.20
2023-05-13T12:20:15.671Z,1.60
2023-05-13T12:22:59.759Z,1.13
2023-05-13T12:25:37.797Z,1.60
2023-05-13T12:28:09.933Z,1.92
2023-05-13T12:30:38.921Z,1.35
2023-05-13T12:33:08.091Z,1.33
2023-05-13T12:35:37.545Z,1.90
2023-05-13T12:38:06.613Z,1.60
2023-05-13T12:40:34.581Z,1.50
2023-05-13T12:43:03.781Z,0.98
2023-05-13T12:45:33.224Z,1.40
2023-05-13T12:48:03.273Z,1.77
2023-05-13T12:50:31.494Z,1.52
2023-05-13T12:53:01.090Z,1.30
2023-05-13T12:55:29.086Z,1.80
2023-05-13T12:57:57.851Z,1.23
2023-05-13T13:00:26.718Z,1.08
2023-05-13T13:02:54.964Z,1.73
2023-05-13T13:05:23.604Z,1.42
2023-05-13T13:07:51.985Z,1.15
2023-05-13T13:10:21.504Z,1.33
2023-05-13T13:12:49.631Z,1.17
2023-05-13T13:15:17.542Z,1.73
2023-05-13T13:17:45.450Z,1.42
2023-05-13T13:20:13.764Z,1.65
2023-05-13T13:22:41.708Z,1.35
2023-05-13T13:25:10.682Z,1.33
2023-05-13T13:27:39.989Z,1.48
2023-05-13T13:30:09.122Z,1.60
2023-05-13T13:32:37.050Z,1.30
2023-05-13T13:35:05.771Z,1.52
2023-05-13T13:37:35.408Z,1.30
2023-05-13T13:40:04.130Z,1.40
2023-05-13T13:42:43.181Z,2.13
2023-05-13T13:45:14.468Z,1.42
2023-05-13T13:47:42.713Z,1.55
2023-05-13T13:50:11.705Z,1.70
2023-05-13T13:52:39.884Z,1.70
2023-05-13T13:55:08.987Z,1.70
2023-05-13T13:57:36.882Z,1.45
2023-05-13T14:00:05.923Z,1.55
2023-05-13T14:02:35.263Z,1.80
2023-05-13T14:05:03.276Z,1.85
2023-05-13T14:07:32.245Z,1.90
2023-05-13T14:10:01.524Z,1.60
2023-05-13T14:12:29.745Z,1.88
2023-05-13T14:14:57.614Z,1.42
2023-05-13T14:17:25.666Z,1.60
2023-05-13T14:19:55.684Z,1.42
2023-05-13T14:22:24.139Z,1.67
2023-05-13T14:24:53.068Z,1.70
2023-05-13T14:27:22.171Z,1.75
2023-05-13T14:29:50.236Z,1.58
2023-05-13T14:32:18.173Z,1.40
2023-05-13T14:34:46.185Z,1.73
2023-05-13T14:37:15.584Z,1.85
2023-05-13T14:39:43.536Z,1.73
2023-05-13T14:42:12.273Z,1.58
2023-05-13T14:44:41.458Z,1.40
2023-05-13T14:47:09.896Z,2.83
2023-05-13T14:49:38.089Z,3.00
2023-05-13T14:52:06.548Z,1.70
2023-05-13T14:54:37.891Z,1.35
2023-05-13T14:57:07.910Z,1.50
2023-05-13T14:59:36.295Z,1.88
2023-05-13T15:02:05.023Z,1.73
2023-05-13T15:04:34.313Z,1.48
2023-05-13T15:07:03.615Z,1.60
2023-05-13T15:09:31.553Z,3.65
2023-05-13T15:12:00.767Z,1.75
2023-05-13T15:14:28.744Z,2.15
2023-05-13T15:16:57.826Z,1.60
2023-05-13T15:19:26.020Z,1.60
2023-05-13T15:21:54.206Z,1.45
2023-05-13T15:24:22.271Z,1.48
2023-05-13T15:26:50.561Z,1.55
2023-05-13T15:29:19.810Z,1.25
2023-05-13T15:31:50.631Z,1.55
2023-05-13T15:34:18.540Z,1.55
2023-05-13T15:36:46.539Z,1.42
2023-05-13T15:39:17.051Z,1.50
2023-05-13T15:41:44.975Z,1.90
2023-05-13T15:44:13.066Z,1.90
2023-05-13T15:46:42.451Z,1.45
2023-05-13T15:49:10.506Z,1.52
2023-05-13T15:51:38.561Z,2.15
2023-05-13T15:54:06.984Z,1.60
2023-05-13T15:56:34.856Z,1.77
2023-05-13T15:59:02.922Z,1.52
2023-05-13T16:01:30.907Z,1.90
2023-05-13T16:04:01.001Z,2.45
2023-05-13T16:06:29.022Z,1.90
2023-05-13T16:08:56.908Z,2.47
2023-05-13T16:11:24.894Z,2.20
2023-05-13T16:13:53.374Z,2.22
2023-05-13T16:16:21.503Z,2.88
2023-05-13T16:18:50.518Z,2.33
2023-05-13T16:21:20.345Z,2.72
2023-05-13T16:23:48.242Z,2.30
2023-05-13T16:26:16.405Z,1.77
2023-05-13T16:28:44.461Z,2.15
2023-05-13T16:31:12.368Z,1.77
2023-05-13T16:33:40.913Z,2.50
2023-05-13T16:36:11.733Z,2.50
2023-05-13T16:38:41.935Z,1.90
2023-05-13T16:41:09.986Z,2.60
2023-05-13T16:43:37.790Z,1.98
2023-05-13T16:46:05.867Z,2.22
2023-05-13T16:48:33.810Z,2.35
2023-05-13T16:51:02.473Z,2.08
2023-05-13T16:53:30.844Z,1.70
2023-05-13T16:56:00.189Z,2.08
2023-05-13T16:58:28.056Z,2.13
2023-05-13T17:00:57.764Z,2.13
2023-05-13T17:03:27.189Z,1.55
2023-05-13T17:05:55.330Z,2.05
2023-05-13T17:08:24.450Z,1.67
2023-05-13T17:10:52.730Z,2.05
2023-05-13T17:13:22.179Z,2.08
2023-05-13T17:15:50.331Z,2.00
2023-05-13T17:18:18.240Z,2.22
2023-05-13T17:20:46.236Z,1.80
2023-05-13T17:23:14.102Z,1.83
2023-05-13T17:25:42.255Z,2.03
2023-05-13T17:28:10.220Z,1.90
2023-05-13T17:30:39.490Z,2.20
2023-05-13T17:33:07.522Z,1.90
2023-05-13T17:35:35.516Z,2.08
2023-05-13T17:38:03.459Z,2.08
2023-05-13T17:40:31.321Z,1.67
2023-05-13T17:43:03.068Z,1.80
2023-05-13T17:45:31.269Z,1.95
2023-05-13T17:48:00.993Z,1.73
2023-05-13T17:50:30.465Z,1.80
2023-05-13T17:52:58.700Z,1.60
2023-05-13T17:55:26.841Z,2.38
2023-05-13T17:57:55.691Z,1.85
2023-05-13T18:00:25.031Z,2.13
2023-05-13T18:02:53.159Z,2.47
2023-05-13T18:05:23.845Z,1.92
2023-05-13T18:07:52.164Z,2.28
2023-05-13T18:10:20.266Z,1.75
2023-05-13T18:12:48.268Z,1.83
2023-05-13T18:15:16.354Z,2.20
2023-05-13T18:17:44.751Z,1.90
2023-05-13T18:20:13.743Z,1.55
2023-05-13T18:22:42.956Z,1.80
2023-05-13T18:25:11.370Z,2.00
2023-05-13T18:27:39.495Z,1.95
2023-05-13T18:30:08.542Z,1.80
2023-05-13T18:32:36.515Z,2.03
2023-05-13T18:35:04.880Z,2.00
2023-05-13T18:37:32.744Z,1.90
2023-05-13T18:40:03.072Z,2.45
2023-05-13T18:42:31.073Z,2.05
2023-05-13T18:45:00.115Z,2.63
2023-05-13T18:47:28.054Z,1.90
2023-05-13T18:49:56.066Z,2.30
2023-05-13T18:52:26.169Z,2.22
2023-05-13T18:54:54.051Z,5.20
2023-05-13T18:57:23.851Z,3.35
2023-05-13T18:59:52.239Z,2.58
2023-05-13T19:02:21.104Z,3.92
2023-05-13T19:04:49.250Z,3.95
2023-05-13T19:07:17.224Z,2.25
2023-05-13T19:09:45.349Z,2.13
2023-05-13T19:12:13.247Z,2.33
2023-05-13T19:14:42.804Z,2.40
2023-05-13T19:17:11.216Z,2.67
2023-05-13T19:19:39.237Z,2.88
2023-05-13T19:22:07.184Z,1.95
2023-05-13T19:24:35.087Z,2.13
2023-05-13T19:27:04.186Z,2.20
2023-05-13T19:29:32.228Z,2.47
2023-05-13T19:32:02.511Z,2.30
2023-05-13T19:34:30.450Z,2.10
2023-05-13T19:36:58.353Z,2.10
2023-05-13T19:39:26.325Z,2.33
2023-05-13T19:41:54.360Z,1.98
2023-05-13T19:44:22.296Z,2.17
2023-05-13T19:46:51.249Z,1.90
2023-05-13T19:49:20.656Z,2.22
2023-05-13T19:51:48.642Z,2.30
2023-05-13T19:54:16.833Z,2.28
2023-05-13T19:56:44.982Z,2.28
2023-05-13T19:59:12.973Z,6.13
2023-05-13T20:01:41.037Z,2.90
2023-05-13T20:04:10.008Z,2.38
2023-05-13T20:06:39.421Z,2.72
2023-05-13T20:09:08.517Z,2.20
2023-05-13T20:11:36.508Z,1.90
2023-05-13T20:14:05.035Z,1.97
2023-05-13T20:16:32.946Z,2.13
2023-05-13T20:19:00.983Z,2.23
2023-05-13T20:21:29.311Z,1.90
2023-05-13T20:23:58.531Z,1.70
2023-05-13T20:26:26.654Z,2.00
2023-05-13T20:28:54.519Z,2.63
2023-05-13T20:31:22.415Z,2.53
2023-05-13T20:33:50.883Z,2.23
2023-05-13T20:36:19.039Z,2.50
2023-05-13T20:38:47.705Z,2.37
2023-05-13T20:41:17.083Z,2.30
2023-05-13T20:43:44.991Z,2.10
2023-05-13T20:46:16.819Z,2.10
2023-05-13T20:48:44.930Z,2.70
2023-05-13T20:51:12.812Z,2.67
2023-05-13T20:53:40.692Z,2.20
2023-05-13T20:56:10.085Z,2.50
2023-05-13T20:58:39.373Z,2.53
2023-05-13T21:01:07.369Z,3.07
2023-05-13T21:03:35.624Z,2.53
2023-05-13T21:06:03.543Z,2.70
2023-05-13T21:08:31.406Z,2.40
2023-05-13T21:10:59.284Z,2.20
2023-05-13T21:13:27.186Z,3.33
2023-05-13T21:15:57.482Z,2.80
2023-05-13T21:18:25.726Z,2.63
2023-05-13T21:20:54.779Z,2.83
2023-05-13T21:23:22.742Z,2.30
2023-05-13T21:25:51.237Z,2.60
2023-05-13T21:28:19.339Z,2.60
2023-05-13T21:30:47.307Z,2.80
2023-05-13T21:33:16.781Z,3.00
2023-05-13T21:35:44.750Z,3.03
2023-05-13T21:38:12.894Z,2.77
2023-05-13T21:40:41.108Z,3.00
2023-05-13T21:43:09.222Z,3.63
2023-05-13T21:45:37.277Z,3.17
2023-05-13T21:48:05.665Z,3.20
2023-05-13T21:50:35.464Z,2.87
2023-05-13T21:53:04.413Z,3.13
2023-05-13T21:55:35.054Z,3.53
2023-05-13T21:58:03.264Z,3.40
2023-05-13T22:00:31.802Z,3.90
2023-05-13T22:03:00.382Z,3.20
2023-05-13T22:05:28.761Z,3.20
2023-05-13T22:08:00.108Z,3.03
2023-05-13T22:10:28.169Z,3.90
2023-05-13T22:12:56.121Z,3.30
2023-05-13T22:15:24.108Z,3.40
2023-05-13T22:17:52.325Z,3.90
2023-05-13T22:20:20.686Z,3.20
2023-05-13T22:22:48.692Z,3.23
2023-05-13T22:25:18.118Z,3.70
2023-05-13T22:27:47.465Z,3.47
2023-05-13T22:30:15.683Z,3.80
2023-05-13T22:32:43.705Z,3.70
2023-05-13T22:35:11.830Z,3.33
2023-05-13T22:37:39.790Z,3.70
2023-05-13T22:40:10.222Z,4.40
2023-05-13T22:42:39.549Z,3.93
2023-05-13T22:45:08.438Z,4.23
2023-05-13T22:47:37.155Z,4.07
2023-05-13T22:50:05.734Z,4.30
2023-05-13T22:52:33.731Z,3.70
2023-05-13T22:55:01.664Z,3.97
2023-05-13T22:57:29.602Z,4.13
2023-05-13T22:59:58.750Z,4.03
2023-05-13T23:02:26.694Z,4.50
2023-05-13T23:04:54.629Z,4.27
2023-05-13T23:07:22.543Z,4.20
2023-05-13T23:09:50.587Z,4.07
2023-05-13T23:12:18.524Z,4.13
2023-05-13T23:14:46.500Z,4.43
2023-05-13T23:17:15.870Z,4.70
2023-05-13T23:19:44.205Z,4.40
2023-05-13T23:22:12.223Z,4.53
2023-05-13T23:24:40.101Z,4.37
2023-05-13T23:27:08.377Z,3.93
2023-05-13T23:29:36.970Z,4.07
2023-05-13T23:32:06.738Z,3.87
2023-05-13T23:34:36.486Z,4.50
2023-05-13T23:37:05.062Z,3.73
2023-05-13T23:39:32.943Z,4.40
2023-05-13T23:42:01.823Z,4.53
2023-05-13T23:44:30.264Z,4.83
2023-05-13T23:46:58.627Z,4.90
2023-05-13T23:49:26.604Z,4.50
2023-05-13T23:51:55.857Z,5.37
2023-05-13T23:54:24.084Z,4.50
2023-05-13T23:56:52.574Z,4.50
2023-05-13T23:59:20.573Z,4.63
